Flight Track Log - Related Links

Times and Time Zones

All times are in EDT time to prevent confusion due to time zone crossing. See the EGF3796 flight status page for this flight to view local times or setup timezone preferences in your user account.

Time Position Orientation Groundspeed Altitude Reporting Facility
EDT Latitude Longitude Course Direction KTS MPH feet Rate Location/Type
Sun 06:34:27 PM 41.9667 -87.8667 197° South 174 200 2,400  Level Chicago TRACON
Sun 06:36:28 PM 41.8667 -87.7667 143° Southeast 256 295 5,100 1,348 Climbing Chicago TRACON
Sun 06:37:00 PM 41.5314 -88.1108 197° South  Level FlightAware Approximate
Sun 06:37:34 PM 41.7833 -87.7667 180° South 263 303 6,600  Level Chicago TRACON
Sun 06:38:00 PM 41.4174 -88.1553 194° South  Level FlightAware Approximate
Sun 06:39:00 PM 41.3051 -88.2058 201° Southwest  Level FlightAware Approximate
Sun 06:39:36 PM 41.6678 -87.8908 219° Southwest 291 335 11,900  Level Chicago Center
Sun 06:40:00 PM 41.2052 -88.2618 197° South  Level FlightAware Approximate
Sun 06:40:38 PM 41.6031 -87.9619 219° Southwest 300 345 14,500  Level Chicago Center
Sun 06:41:40 PM 41.5206 -88.0522 219° Southwest 320 368 17,300 2,323 Climbing Chicago Center
Sun 06:42:42 PM 41.4511 -88.1292 220° Southwest 337 388 19,300 1,452 Climbing Chicago Center
Sun 06:43:44 PM 41.3678 -88.1972 212° Southwest 373 429 20,300 1,113 Climbing Chicago Center
Sun 06:44:46 PM 41.2444 -88.2531 199° South 398 458 21,600 1,355 Climbing Chicago Center
Sun 06:45:48 PM 41.1361 -88.3019 199° South 412 474 23,100 1,452 Climbing Chicago Center
Sun 06:46:50 PM 41.0244 -88.3517 199° South 421 484 24,600 1,440 Climbing Chicago Center
Sun 06:47:53 PM 40.9128 -88.4022 199° South 426 490 26,100 1,440 Climbing Chicago Center
Sun 06:48:55 PM 40.8003 -88.4522 199° South 429 494 27,600 1,597 Climbing Chicago Center
Sun 06:49:57 PM 40.6653 -88.5128 199° South 429 494 29,400 1,452 Climbing Chicago Center
Sun 06:50:59 PM 40.5544 -88.5628 199° South 426 490 30,600 968 Climbing Chicago Center
Sun 06:52:01 PM 40.4397 -88.6131 198° South 434 499 31,400 677 Climbing Chicago Center
Sun 06:53:03 PM 40.3194 -88.6764 202° Southwest 459 528 32,000 290 Climbing Chicago Center
Sun 06:54:05 PM 40.2194 -88.7911 221° Southwest 477 549 32,000  Level Chicago Center
Sun 06:55:00 PM 40.1175 -88.9200 224° Southwest 497 572 32,000  Level Kansas City Center
Sun 06:56:02 PM 40.0158 -89.0478 224° Southwest 502 578 32,000  Level Kansas City Center
Sun 06:57:03 PM 39.9150 -89.1747 224° Southwest 503 579 32,000  Level Kansas City Center
Sun 06:58:05 PM 39.8167 -89.3078 226° Southwest 506 582 32,000  Level Kansas City Center
Sun 06:59:07 PM 39.7222 -89.4483 229° Southwest 510 587 32,000  Level Kansas City Center
Sun 07:00:09 PM 39.6219 -89.5931 228° Southwest 511 588 32,000  Level Kansas City Center
Sun 07:01:11 PM 39.5269 -89.7311 228° Southwest 514 592 32,000  Level Kansas City Center
Sun 07:02:13 PM 39.4306 -89.8694 228° Southwest 517 595 32,000  Level Kansas City Center
Sun 07:03:14 PM 39.3164 -90.0333 228° Southwest 515 593 32,000  Level Kansas City Center
Sun 07:04:16 PM 39.2208 -90.1706 228° Southwest 516 594 32,000  Level Kansas City Center
Sun 07:05:18 PM 39.1258 -90.3053 228° Southwest 514 592 32,000  Level Kansas City Center
Sun 07:06:20 PM 39.0308 -90.4403 228° Southwest 515 593 32,000  Level Kansas City Center
Sun 07:07:22 PM 38.9175 -90.6006 228° Southwest 510 587 32,000  Level Kansas City Center
Sun 07:08:24 PM 38.8214 -90.7336 227° Southwest 530 610 32,000 -537 Level Kansas City Center
Sun 07:09:25 PM 38.7269 -90.8642 227° Southwest 516 594 30,900 -1,512 Descending Kansas City Center
Sun 07:10:27 PM 38.6303 -90.9978 227° Southwest 516 594 28,900 -1,403 Descending Kansas City Center
Sun 07:11:29 PM 38.5347 -91.1306 227° Southwest 512 589 28,000 -435 Descending Kansas City Center
Sun 07:12:31 PM 38.4403 -91.2594 227° Southwest 504 580 28,000  Level Kansas City Center
Sun 07:13:33 PM 38.3369 -91.4000 227° Southwest 505 581 28,000  Level Kansas City Center
Sun 07:14:35 PM 38.2383 -91.5331 227° Southwest 511 588 28,000  Level Kansas City Center
Sun 07:15:37 PM 38.1222 -91.6911 227° Southwest 508 585 28,000 -537 Level Kansas City Center
Sun 07:16:38 PM 38.0242 -91.8231 227° Southwest 508 585 26,900 -1,512 Descending Kansas City Center
Sun 07:17:40 PM 37.9278 -91.9531 227° Southwest 502 578 24,900 -1,403 Descending Kansas City Center
Sun 07:18:42 PM 37.8358 -92.0775 227° Southwest 480 552 24,000 -871 Descending Kansas City Center
Sun 07:19:44 PM 37.7417 -92.2028 226° Southwest 470 541 23,100 -871 Descending Kansas City Center
Sun 07:20:46 PM 37.6528 -92.3206 226° Southwest 465 535 22,200 -871 Descending Kansas City Center
Sun 07:21:48 PM 37.5636 -92.4389 226° Southwest 465 535 21,300 -878 Descending Kansas City Center
Sun 07:22:49 PM 37.4728 -92.5594 227° Southwest 467 537 20,400 -878 Descending Kansas City Center
Sun 07:23:51 PM 37.3833 -92.6772 226° Southwest 466 536 19,500 -871 Descending Kansas City Center
Sun 07:24:53 PM 37.2958 -92.7914 226° Southwest 460 529 18,600 -871 Descending Kansas City Center
Sun 07:25:55 PM 37.2108 -92.9036 226° Southwest 451 519 17,700 -919 Descending Kansas City Center
Sun 07:26:57 PM 37.1097 -93.0342 226° Southwest 440 506 16,700 -823 Descending Kansas City Center
Sun 07:27:59 PM 37.0256 -93.1419 226° Southwest 433 498 16,000 -341 Descending Kansas City Center
Sun 07:29:00 PM 36.9403 -93.2508 226° Southwest 436 502 16,000 -390 Level Kansas City Center
Sun 07:30:02 PM 36.8608 -93.3542 226° Southwest 433 498 15,200 -1,065 Descending Kansas City Center
Sun 07:31:04 PM 36.7794 -93.4553 225° Southwest 422 486 13,800 -1,403 Descending Kansas City Center
Sun 07:32:06 PM 36.7036 -93.5506 225° Southwest 400 460 12,300 -1,597 Descending Kansas City Center
Sun 07:33:08 PM 36.6139 -93.6642 225° Southwest 388 447 10,500 -1,210 Descending Kansas City Center
Sun 07:34:10 PM 36.5397 -93.7422 220° Southwest 359 413 9,800 -732 Descending Kansas City Center
Sun 07:35:11 PM 36.4831 -93.8006 220° Southwest 313 360 9,000 -1,024 Descending Kansas City Center
Sun 07:36:13 PM 36.4064 -93.8806 220° Southwest 301 346 7,700 -1,113 Descending Kansas City Center
Sun 07:37:15 PM 36.3414 -93.9453 219° Southwest 299 344 6,700 -919 Descending Kansas City Center
Sun 07:38:17 PM 36.2869 -94.0025 220° Southwest 294 338 5,800 -968 Descending Kansas City Center
Sun 07:39:19 PM 36.2183 -94.0706 219° Southwest 288 331 4,700 -1,024 Descending Kansas City Center
Sun 07:40:20 PM 36.1600 -94.1289 219° Southwest 281 323 3,700 -829 Descending Kansas City Center
Sun 07:41:22 PM 36.1275 -94.1911 237° Southwest 252 290 3,000 -339 Descending Kansas City Center
Sun 07:42:24 PM 36.1497 -94.2483 296° West 212 244 3,000  Level Kansas City Center

Login

Don't have an account? Register now (free) for customized features, flight alerts, and more!